createdAt,value
2023-06-09T00:01:59.888Z,100136.84
2023-06-09T00:07:03.623Z,100126.34
2023-06-09T00:12:07.892Z,100122.06
2023-06-09T00:17:12.255Z,100123.25
2023-06-09T00:22:16.470Z,100127.25
2023-06-09T00:27:19.342Z,100121.72
2023-06-09T00:32:23.481Z,100115.97
2023-06-09T00:37:26.271Z,100113.41
2023-06-09T00:42:31.295Z,100109.66
2023-06-09T00:47:35.451Z,100108.50
2023-06-09T00:52:38.479Z,100113.78
2023-06-09T00:57:41.431Z,100112.50
2023-06-09T01:02:45.906Z,100119.72
2023-06-09T01:07:57.560Z,100127.56
2023-06-09T01:13:04.145Z,100112.97
2023-06-09T01:18:13.880Z,100113.78
2023-06-09T01:23:21.906Z,100117.16
2023-06-09T01:28:27.899Z,100110.25
2023-06-09T01:33:30.716Z,100118.25
2023-06-09T01:38:33.743Z,100115.25
2023-06-09T01:43:38.019Z,100104.84
2023-06-09T01:48:49.455Z,100100.19
2023-06-09T01:53:56.370Z,100108.47
2023-06-09T01:59:04.416Z,100105.94
2023-06-09T02:04:07.585Z,100101.16
2023-06-09T02:09:11.544Z,100104.53
2023-06-09T02:14:16.410Z,100097.63
2023-06-09T02:19:20.068Z,100101.94
2023-06-09T02:24:22.960Z,100109.75
2023-06-09T02:29:27.458Z,100120.22
2023-06-09T02:34:31.540Z,100121.06
2023-06-09T02:39:34.531Z,100126.38
2023-06-09T02:44:39.138Z,100122.56
2023-06-09T02:49:42.318Z,100122.09
2023-06-09T02:54:45.298Z,100128.38
2023-06-09T02:59:51.361Z,100141.19
2023-06-09T03:04:55.278Z,100139.44
2023-06-09T03:09:58.160Z,100154.63
2023-06-09T03:15:02.642Z,100149.28
2023-06-09T03:20:07.323Z,100149.50
2023-06-09T03:25:11.338Z,100151.47
2023-06-09T03:30:16.716Z,100150.56
2023-06-09T03:35:22.728Z,100156.41
2023-06-09T03:40:26.352Z,100159.16
2023-06-09T03:45:30.570Z,100155.25
2023-06-09T03:50:34.771Z,100158.91
2023-06-09T03:55:39.530Z,100161.28
2023-06-09T04:00:44.781Z,100157.34
2023-06-09T04:05:48.541Z,100158.25
2023-06-09T04:10:53.084Z,100157.91
2023-06-09T04:15:57.293Z,100157.91
2023-06-09T04:21:00.540Z,100162.84
2023-06-09T04:26:03.665Z,100159.09
2023-06-09T04:31:13.610Z,100154.19
2023-06-09T04:36:18.477Z,100151.94
2023-06-09T04:41:22.950Z,100145.34
2023-06-09T04:46:28.293Z,100155.28
2023-06-09T04:51:42.657Z,100152.16
2023-06-09T04:56:53.260Z,100142.69
2023-06-09T05:01:59.887Z,100142.59
2023-06-09T05:07:05.156Z,100136.38
2023-06-09T05:12:13.476Z,100139.94
2023-06-09T05:17:17.777Z,100141.66
2023-06-09T05:22:21.203Z,100138.44
2023-06-09T05:27:24.333Z,100142.63
2023-06-09T05:32:29.194Z,100148.88
2023-06-09T05:37:32.733Z,100154.50
2023-06-09T05:42:35.677Z,100153.19
2023-06-09T05:47:40.013Z,100150.66
2023-06-09T05:52:42.842Z,100157.13
2023-06-09T05:57:46.150Z,100165.69
2023-06-09T06:02:51.260Z,100167.81
2023-06-09T06:07:54.400Z,100169.13
2023-06-09T06:12:59.271Z,100168.81
2023-06-09T06:18:03.636Z,100169.88
2023-06-09T06:23:09.072Z,100164.44
2023-06-09T06:28:12.251Z,100173.50
2023-06-09T06:33:16.693Z,100176.44
2023-06-09T06:38:19.676Z,100181.94
2023-06-09T06:43:22.710Z,100177.06
2023-06-09T06:48:34.845Z,100173.31
2023-06-09T06:53:39.108Z,100172.97
2023-06-09T06:58:42.319Z,100178.50
2023-06-09T07:03:46.621Z,100182.19
2023-06-09T07:08:50.209Z,100172.81
2023-06-09T07:13:54.742Z,100173.31
2023-06-09T07:18:58.988Z,100166.56
2023-06-09T07:24:02.013Z,100164.69
2023-06-09T07:29:05.275Z,100171.25
2023-06-09T07:34:09.886Z,100168.34
2023-06-09T07:39:12.801Z,100170.19
2023-06-09T07:44:16.087Z,100177.75
2023-06-09T07:49:21.653Z,100178.13
2023-06-09T07:54:25.698Z,100184.19
2023-06-09T07:59:28.629Z,100183.34
2023-06-09T08:04:32.901Z,100185.34
2023-06-09T08:09:35.842Z,100190.88
2023-06-09T08:14:39.872Z,100187.72
2023-06-09T08:19:44.310Z,100185.41
2023-06-09T08:24:48.087Z,100187.19
2023-06-09T08:29:51.275Z,100191.84
2023-06-09T08:34:55.873Z,100184.88
2023-06-09T08:40:00.333Z,100182.09
2023-06-09T08:45:08.298Z,100186.00
2023-06-09T08:50:15.316Z,100181.72
2023-06-09T08:55:18.282Z,100181.06
2023-06-09T09:00:21.460Z,100170.09
2023-06-09T09:05:25.600Z,100161.41
2023-06-09T09:10:29.306Z,100157.38
2023-06-09T09:15:32.271Z,100166.78
2023-06-09T09:20:37.513Z,100173.16
2023-06-09T09:25:40.475Z,100171.84
2023-06-09T09:30:50.520Z,100172.34
2023-06-09T09:35:56.350Z,100177.22
2023-06-09T09:41:00.676Z,100174.41
2023-06-09T09:46:05.850Z,100170.41
2023-06-09T09:51:10.818Z,100175.00
2023-06-09T09:56:16.117Z,100161.72
2023-06-09T10:01:21.164Z,100157.63
2023-06-09T10:06:30.133Z,100156.00
2023-06-09T10:11:33.642Z,100163.47
2023-06-09T10:16:37.176Z,100155.06
2023-06-09T10:21:43.012Z,100154.81
2023-06-09T10:26:46.251Z,100144.53
2023-06-09T10:31:50.032Z,100156.78
2023-06-09T10:36:56.392Z,100141.56
2023-06-09T10:42:08.289Z,100133.09
2023-06-09T10:47:11.303Z,100134.41
2023-06-09T10:52:55.075Z,100137.78
2023-06-09T10:57:59.068Z,100129.56
2023-06-09T11:03:30.265Z,100125.66
2023-06-09T11:09:03.019Z,100118.81
2023-06-09T11:14:07.244Z,100110.81
2023-06-09T11:19:24.809Z,100101.59
2023-06-09T11:24:47.417Z,100096.50
2023-06-09T11:30:10.825Z,100093.50
2023-06-09T11:35:41.641Z,100082.72
2023-06-09T11:40:51.332Z,100084.13
2023-06-09T11:46:11.011Z,100076.72
2023-06-09T11:51:20.581Z,100076.13
2023-06-09T11:56:24.200Z,100075.78
2023-06-09T12:01:37.726Z,100061.94
2023-06-09T12:06:40.819Z,100062.81
2023-06-09T12:11:53.714Z,100057.84
2023-06-09T12:16:58.610Z,100046.38
2023-06-09T12:22:04.073Z,100041.31
2023-06-09T12:27:13.954Z,100039.03
2023-06-09T12:32:25.262Z,100028.84
2023-06-09T12:37:31.408Z,100027.66
2023-06-09T12:42:47.462Z,100024.00
2023-06-09T12:47:52.392Z,100027.75
2023-06-09T12:52:55.413Z,100020.94
2023-06-09T12:57:58.788Z,100014.56
2023-06-09T13:03:05.616Z,100018.03
2023-06-09T13:08:09.169Z,100013.72
2023-06-09T13:13:12.229Z,100008.28
2023-06-09T13:18:17.196Z,100001.22
2023-06-09T13:23:20.062Z,99987.88
2023-06-09T13:28:22.909Z,99990.00
2023-06-09T13:33:27.249Z,99982.22
2023-06-09T13:38:30.392Z,99982.16
2023-06-09T13:43:48.983Z,99976.09
2023-06-09T13:49:03.446Z,99976.94
2023-06-09T13:54:06.572Z,99967.59
2023-06-09T13:59:09.361Z,99966.75
2023-06-09T14:04:13.733Z,99965.81
2023-06-09T14:09:16.808Z,99967.09
2023-06-09T14:14:19.642Z,99962.22
2023-06-09T14:19:24.151Z,99947.31
2023-06-09T14:24:27.011Z,99947.03
2023-06-09T14:29:32.823Z,99924.94
2023-06-09T14:34:37.010Z,99909.88
2023-06-09T14:39:39.806Z,99886.00
2023-06-09T14:44:42.584Z,99872.63
2023-06-09T14:49:46.760Z,99859.91
2023-06-09T14:54:51.096Z,99844.25
2023-06-09T14:59:54.880Z,99839.16
2023-06-09T15:05:00.501Z,99831.03
2023-06-09T15:10:03.567Z,99839.75
2023-06-09T15:15:07.279Z,99834.91
2023-06-09T15:20:13.867Z,99828.41
2023-06-09T15:25:16.717Z,99830.41
2023-06-09T15:30:19.472Z,99810.47
2023-06-09T15:35:23.668Z,99812.56
2023-06-09T15:40:26.495Z,99811.72
2023-06-09T15:45:29.233Z,99812.34
2023-06-09T15:50:33.349Z,99798.59
2023-06-09T15:55:36.338Z,99792.84
2023-06-09T16:00:39.193Z,99792.94
2023-06-09T16:05:44.104Z,99799.34
2023-06-09T16:10:48.406Z,99810.84
2023-06-09T16:15:51.790Z,99801.31
2023-06-09T16:20:56.085Z,99804.44
2023-06-09T16:25:58.846Z,99817.34
2023-06-09T16:31:01.838Z,99822.47
2023-06-09T16:36:07.663Z,99833.00
2023-06-09T16:41:10.563Z,99829.66
2023-06-09T16:46:13.447Z,99839.34
2023-06-09T16:51:17.852Z,99827.22
2023-06-09T16:56:21.032Z,99834.19
2023-06-09T17:01:23.959Z,99838.69
2023-06-09T17:06:28.194Z,99837.06
2023-06-09T17:11:31.012Z,99844.25
2023-06-09T17:16:33.946Z,99840.66
2023-06-09T17:21:38.435Z,99843.66
2023-06-09T17:26:41.237Z,99851.44
2023-06-09T17:31:44.280Z,99846.72
2023-06-09T17:36:48.522Z,99854.19
2023-06-09T17:41:51.536Z,99852.22
2023-06-09T17:46:54.385Z,99859.47
2023-06-09T17:51:58.749Z,99857.78
2023-06-09T17:57:01.808Z,99864.13
2023-06-09T18:02:05.066Z,99869.63
2023-06-09T18:07:11.360Z,99862.72
2023-06-09T18:12:14.279Z,99872.75
2023-06-09T18:17:17.583Z,99885.69
2023-06-09T18:22:22.297Z,99885.34
2023-06-09T18:27:25.581Z,99886.91
2023-06-09T18:32:31.893Z,99896.78
2023-06-09T18:37:36.378Z,99894.22
2023-06-09T18:42:40.537Z,99896.72
2023-06-09T18:47:43.855Z,99901.09
2023-06-09T18:52:47.986Z,99908.97
2023-06-09T18:57:50.823Z,99911.50
2023-06-09T19:02:53.760Z,99921.59
2023-06-09T19:07:58.212Z,99927.69
2023-06-09T19:13:01.522Z,99929.09
2023-06-09T19:18:05.675Z,99927.53
2023-06-09T19:23:11.038Z,99935.09
2023-06-09T19:28:14.052Z,99939.81
2023-06-09T19:33:22.152Z,99936.75
2023-06-09T19:38:28.638Z,99941.25
2023-06-09T19:43:31.387Z,99950.75
2023-06-09T19:48:34.353Z,99959.91
2023-06-09T19:53:38.671Z,99969.50
2023-06-09T19:58:43.140Z,99961.03
2023-06-09T20:03:46.001Z,99960.88
2023-06-09T20:08:50.302Z,99963.94
2023-06-09T20:13:53.814Z,99965.09
2023-06-09T20:18:56.612Z,99971.97
2023-06-09T20:24:00.802Z,99982.78
2023-06-09T20:29:03.771Z,99978.34
2023-06-09T20:34:06.792Z,99984.63
2023-06-09T20:39:11.988Z,99977.91
2023-06-09T20:44:14.903Z,99985.28
2023-06-09T20:49:17.805Z,99995.06
2023-06-09T20:54:22.627Z,99999.19
2023-06-09T20:59:25.620Z,100000.97
2023-06-09T21:04:30.334Z,99998.78
2023-06-09T21:09:34.730Z,100004.72
2023-06-09T21:14:37.485Z,99993.06
2023-06-09T21:19:42.841Z,100001.47
2023-06-09T21:24:47.008Z,99992.97
2023-06-09T21:29:49.938Z,100006.94
2023-06-09T21:34:52.720Z,100006.69
2023-06-09T21:39:56.894Z,100017.28
2023-06-09T21:44:59.729Z,100017.66
2023-06-09T21:50:02.733Z,100027.44
2023-06-09T21:55:08.751Z,100024.50
2023-06-09T22:00:15.088Z,100024.50
2023-06-09T22:05:18.030Z,100027.75
2023-06-09T22:10:22.423Z,100022.50
2023-06-09T22:15:27.204Z,100038.22
2023-06-09T22:20:31.187Z,100027.63
2023-06-09T22:25:35.331Z,100028.72
2023-06-09T22:30:38.184Z,100035.34
2023-06-09T22:35:41.251Z,100029.28
2023-06-09T22:40:46.178Z,100038.91
2023-06-09T22:45:48.949Z,100030.81
2023-06-09T22:50:52.338Z,100044.94
2023-06-09T22:55:56.664Z,100050.19
2023-06-09T23:00:59.411Z,100047.88
2023-06-09T23:06:04.200Z,100050.38
2023-06-09T23:11:08.643Z,100055.25
2023-06-09T23:16:11.565Z,100051.41
2023-06-09T23:21:14.592Z,100053.50
2023-06-09T23:26:18.867Z,100058.97
2023-06-09T23:31:22.978Z,100062.94
2023-06-09T23:36:28.968Z,100051.94
2023-06-09T23:41:33.367Z,100056.88
2023-06-09T23:46:36.252Z,100048.56
2023-06-09T23:51:39.097Z,100054.28
2023-06-09T23:56:45.361Z,100049.72
